Time;durP1;ratioP1;P1;durP2;ratioP2;P2;SDS_P1;SDS_P2;PMS_P1;PMS_P2;Temp;Humidity;BMP_temperature;BMP_pressure;BME280_temperature;BME280_humidity;BME280_pressure;Samples;Min_cycle;Max_cycle;Signal;HPM_P1;HPM_P2
2022/03/23 00:01:29;;;;;;;73.50;54.05;;;17.80;52.50;;;;;;5007431;27;91864;-77
2022/03/23 00:03:55;;;;;;;74.57;54.08;;;17.80;52.50;;;;;;5001487;27;91483;-76
2022/03/23 00:06:21;;;;;;;76.45;55.05;;;17.80;52.50;;;;;;5009441;27;90629;-76
2022/03/23 00:08:47;;;;;;;73.82;54.30;;;17.80;52.40;;;;;;5001228;27;91924;-76
2022/03/23 00:11:13;;;;;;;73.55;53.60;;;17.80;52.50;;;;;;5010987;27;95085;-76
2022/03/23 00:13:38;;;;;;;74.28;54.53;;;17.80;52.50;;;;;;5008165;27;89807;-76
2022/03/23 00:16:05;;;;;;;75.60;54.83;;;17.80;52.50;;;;;;5010875;27;89749;-76
2022/03/23 00:18:31;;;;;;;76.47;55.22;;;17.80;52.50;;;;;;5005759;27;91463;-76
2022/03/23 00:20:57;;;;;;;75.70;55.15;;;17.80;52.60;;;;;;5003379;27;89950;-77
2022/03/23 00:23:22;;;;;;;74.47;54.65;;;17.80;52.60;;;;;;4993992;27;90698;-77
2022/03/23 00:25:48;;;;;;;77.80;55.03;;;17.80;52.60;;;;;;4995536;27;96355;-77
2022/03/23 00:28:14;;;;;;;75.47;54.20;;;17.70;52.50;;;;;;5001274;27;94587;-77
2022/03/23 00:30:40;;;;;;;74.95;55.15;;;17.80;52.60;;;;;;5003625;27;90307;-77
2022/03/23 00:33:06;;;;;;;74.32;53.80;;;17.80;52.60;;;;;;5005372;27;90856;-77
2022/03/23 00:35:32;;;;;;;75.10;54.63;;;17.70;52.50;;;;;;5003243;27;90298;-77
2022/03/23 00:37:58;;;;;;;75.35;54.97;;;17.80;52.60;;;;;;5006073;27;94905;-77
2022/03/23 00:40:28;;;;;;;74.45;54.20;;;17.70;52.50;;;;;;4988507;27;90082;-77
2022/03/23 00:42:54;;;;;;;75.70;54.15;;;17.70;52.50;;;;;;5000623;27;89499;-78
2022/03/23 00:45:20;;;;;;;73.90;54.22;;;17.70;52.50;;;;;;5004667;27;90221;-76
2022/03/23 00:47:48;;;;;;;75.05;53.88;;;17.70;52.50;;;;;;5012208;27;90902;-76
2022/03/23 00:50:14;;;;;;;76.00;55.20;;;17.70;52.50;;;;;;4998266;27;96384;-76
2022/03/23 00:52:41;;;;;;;73.68;54.03;;;17.70;52.50;;;;;;5001123;27;90575;-76
2022/03/23 00:55:09;;;;;;;74.15;54.33;;;17.70;52.50;;;;;;4997239;27;92022;-77
2022/03/23 00:57:36;;;;;;;74.18;54.58;;;17.70;52.60;;;;;;5002782;27;90184;-77
2022/03/23 01:00:06;;;;;;;72.50;53.78;;;17.70;52.60;;;;;;4998414;27;90770;-77
2022/03/23 01:02:35;;;;;;;74.35;53.83;;;17.70;52.60;;;;;;4997680;27;90159;-76
2022/03/23 01:05:02;;;;;;;73.25;53.92;;;17.70;52.60;;;;;;5006050;27;93606;-77
2022/03/23 01:07:27;;;;;;;75.15;54.20;;;17.70;52.60;;;;;;5004407;27;91798;-77
2022/03/23 01:09:53;;;;;;;74.43;54.72;;;17.60;52.50;;;;;;4991455;27;91244;-76
2022/03/23 01:12:19;;;;;;;73.93;54.15;;;17.60;52.60;;;;;;5000139;27;89986;-76
2022/03/23 01:14:44;;;;;;;75.90;55.00;;;17.60;52.60;;;;;;4997890;27;91888;-77
2022/03/23 01:17:10;;;;;;;73.75;53.67;;;17.70;52.60;;;;;;5005884;27;90996;-77
2022/03/23 01:19:36;;;;;;;74.00;54.78;;;17.60;52.60;;;;;;5005883;27;89813;-77
2022/03/23 01:22:04;;;;;;;75.55;53.97;;;17.60;52.60;;;;;;5006219;27;90876;-77
2022/03/23 01:24:30;;;;;;;75.57;54.78;;;17.60;52.60;;;;;;4998406;27;94445;-77
2022/03/23 01:26:56;;;;;;;74.65;53.80;;;17.60;52.60;;;;;;5003271;27;89842;-77
2022/03/23 01:29:21;;;;;;;74.70;54.38;;;17.60;52.60;;;;;;5007224;27;93940;-78
2022/03/23 01:31:47;;;;;;;72.68;53.55;;;17.60;52.60;;;;;;5004726;27;88986;-77
2022/03/23 01:34:14;;;;;;;73.30;53.90;;;17.60;52.60;;;;;;4995889;27;93155;-77
2022/03/23 01:36:39;;;;;;;74.82;54.03;;;17.60;52.70;;;;;;4999763;27;91578;-76
2022/03/23 01:39:05;;;;;;;73.63;54.20;;;17.60;52.70;;;;;;4995691;27;90821;-76
2022/03/23 01:41:35;;;;;;;72.03;53.55;;;17.60;52.70;;;;;;4995240;27;89488;-76
2022/03/23 01:44:00;;;;;;;74.03;54.15;;;17.50;52.70;;;;;;5005542;27;89745;-77
2022/03/23 01:46:26;;;;;;;73.80;53.75;;;17.50;52.60;;;;;;5002835;27;90325;-76
2022/03/23 01:48:52;;;;;;;72.70;53.75;;;17.50;52.60;;;;;;4992479;27;89744;-76
2022/03/23 01:51:17;;;;;;;73.07;53.60;;;17.50;52.60;;;;;;4996217;27;89552;-76
2022/03/23 01:53:43;;;;;;;72.68;53.65;;;17.50;52.60;;;;;;5002209;27;90042;-77
2022/03/23 01:56:11;;;;;;;73.25;54.08;;;17.50;52.60;;;;;;4993263;27;91255;-77
2022/03/23 01:58:37;;;;;;;73.35;53.97;;;17.50;52.60;;;;;;5010409;27;90124;-77
2022/03/23 02:01:03;;;;;;;73.65;53.53;;;17.40;52.50;;;;;;4995280;27;90308;-77
2022/03/23 02:03:29;;;;;;;71.63;53.30;;;17.50;52.70;;;;;;4986493;27;94155;-77
2022/03/23 02:05:54;;;;;;;74.95;54.65;;;17.50;52.70;;;;;;4981888;27;90442;-77
2022/03/23 02:08:20;;;;;;;74.97;54.00;;;17.50;52.70;;;;;;5006742;27;90322;-76
2022/03/23 02:10:46;;;;;;;73.47;54.15;;;17.50;52.70;;;;;;4982974;27;90899;-76
2022/03/23 02:13:11;;;;;;;75.05;54.45;;;17.60;52.80;;;;;;4998329;27;92811;-76
2022/03/23 02:15:38;;;;;;;73.82;54.22;;;17.60;52.70;;;;;;4990949;27;91452;-75
2022/03/23 02:18:04;;;;;;;73.65;54.22;;;17.60;52.70;;;;;;4997848;27;90002;-75
2022/03/23 02:20:30;;;;;;;72.75;53.97;;;17.70;52.70;;;;;;5002600;27;89725;-75
2022/03/23 02:22:56;;;;;;;72.32;53.65;;;17.70;52.60;;;;;;4999288;27;92240;-75
2022/03/23 02:25:26;;;;;;;72.63;53.65;;;17.70;52.50;;;;;;5006490;27;91446;-75
2022/03/23 02:27:53;;;;;;;76.13;54.17;;;17.80;52.50;;;;;;4995159;27;90911;-75
2022/03/23 02:30:19;;;;;;;72.97;53.58;;;17.80;52.50;;;;;;4987088;27;89734;-75
2022/03/23 02:32:45;;;;;;;75.07;53.88;;;17.80;52.40;;;;;;4996632;27;91437;-76
2022/03/23 02:35:11;;;;;;;72.05;53.58;;;17.90;52.30;;;;;;5010199;27;93012;-75
2022/03/23 02:37:38;;;;;;;74.95;53.85;;;17.90;52.20;;;;;;4995478;27;96538;-75
2022/03/23 02:40:04;;;;;;;73.43;53.95;;;17.90;52.20;;;;;;4983171;27;93743;-76
2022/03/23 02:42:30;;;;;;;72.45;53.13;;;17.90;52.20;;;;;;5002028;27;92207;-75
2022/03/23 02:44:56;;;;;;;73.57;54.05;;;17.90;52.00;;;;;;5010957;27;92063;-75
2022/03/23 02:47:22;;;;;;;72.15;53.85;;;17.90;52.10;;;;;;4999855;27;96203;-76
2022/03/23 02:49:47;;;;;;;72.95;53.22;;;17.90;52.00;;;;;;5003931;27;91516;-75
2022/03/23 02:52:13;;;;;;;72.38;53.78;;;17.90;52.00;;;;;;5016756;27;92380;-76
2022/03/23 03:03:39;;;;;;;72.20;53.30;;;17.90;51.90;;;;;;5029171;27;89538;-75
2022/03/23 03:06:05;;;;;;;72.60;53.00;;;17.90;51.90;;;;;;5035019;27;90397;-75
2022/03/23 03:08:47;;;;;;;71.68;53.35;;;17.90;51.90;;;;;;5007968;27;89858;-75
2022/03/23 03:11:14;;;;;;;72.35;53.08;;;17.90;51.90;;;;;;4975219;27;90005;-75
2022/03/23 03:13:40;;;;;;;72.43;53.15;;;17.80;51.80;;;;;;5002422;27;90242;-77
2022/03/23 03:16:06;;;;;;;72.78;53.25;;;17.90;51.90;;;;;;5018430;27;95309;-77
2022/03/23 03:18:34;;;;;;;73.53;53.58;;;17.90;51.90;;;;;;5021007;27;97553;-75
2022/03/23 03:21:10;;;;;;;71.03;53.10;;;17.80;51.80;;;;;;5027335;27;90331;-75
2022/03/23 03:23:42;;;;;;;73.32;53.20;;;17.80;51.90;;;;;;5023620;27;90645;-76
2022/03/23 03:26:08;;;;;;;72.60;53.42;;;17.80;51.90;;;;;;5033690;27;89391;-76
2022/03/23 03:28:36;;;;;;;71.05;52.97;;;17.80;51.90;;;;;;5030364;27;89569;-75
2022/03/23 03:31:07;;;;;;;71.13;52.72;;;17.70;51.80;;;;;;5023425;27;90318;-75
2022/03/23 03:33:33;;;;;;;71.68;53.08;;;17.80;51.90;;;;;;5028102;27;89742;-75
2022/03/23 03:35:59;;;;;;;71.32;53.35;;;17.70;51.80;;;;;;5024293;27;90893;-75
2022/03/23 03:38:26;;;;;;;72.25;53.42;;;17.60;51.90;;;;;;5026981;27;89541;-75
2022/03/23 03:40:52;;;;;;;70.82;52.58;;;17.70;52.00;;;;;;5020615;27;89415;-75
2022/03/23 03:43:17;;;;;;;73.00;53.13;;;17.70;52.00;;;;;;5007825;27;92634;-75
2022/03/23 03:45:45;;;;;;;71.68;53.10;;;17.60;52.00;;;;;;5006682;27;91839;-76
2022/03/23 03:48:11;;;;;;;71.55;52.95;;;17.60;52.00;;;;;;5005451;27;93930;-75
2022/03/23 03:50:39;;;;;;;72.88;53.60;;;17.60;52.00;;;;;;5004313;27;92033;-75
2022/03/23 03:53:08;;;;;;;71.55;53.15;;;17.50;52.00;;;;;;5011670;27;90708;-75
2022/03/23 03:55:37;;;;;;;70.20;52.78;;;17.50;52.00;;;;;;4997815;27;90373;-75
2022/03/23 03:58:08;;;;;;;71.47;53.05;;;17.50;52.00;;;;;;4997595;27;89959;-75
2022/03/23 04:00:35;;;;;;;71.80;52.60;;;17.50;52.10;;;;;;5001837;27;88660;-76
2022/03/23 04:03:02;;;;;;;71.90;52.90;;;17.50;52.20;;;;;;5004980;27;90188;-75
2022/03/23 04:05:28;;;;;;;72.75;53.55;;;17.50;52.20;;;;;;5003386;27;90310;-75
2022/03/23 04:07:57;;;;;;;71.78;53.08;;;17.40;52.10;;;;;;4996061;27;91567;-75
2022/03/23 04:10:26;;;;;;;71.75;52.80;;;17.40;52.10;;;;;;4992926;27;89775;-75
2022/03/23 04:12:52;;;;;;;72.68;53.75;;;17.40;52.20;;;;;;4999675;27;90868;-75
2022/03/23 04:15:20;;;;;;;72.47;53.13;;;17.40;52.20;;;;;;5023002;27;89741;-76
2022/03/23 04:17:46;;;;;;;72.60;53.25;;;17.40;52.20;;;;;;5037156;27;89145;-76
2022/03/23 04:20:12;;;;;;;72.15;52.95;;;17.30;52.20;;;;;;5024727;27;92316;-76
2022/03/23 04:22:38;;;;;;;73.32;53.40;;;17.30;52.30;;;;;;5031846;27;90507;-75
2022/03/23 04:25:10;;;;;;;72.93;53.72;;;17.30;52.30;;;;;;5030474;27;89401;-76
2022/03/23 04:27:48;;;;;;;70.47;52.50;;;17.20;52.30;;;;;;5023308;27;89422;-76
2022/03/23 04:30:16;;;;;;;72.03;53.15;;;17.20;52.30;;;;;;5005445;27;91285;-76
2022/03/23 04:32:42;;;;;;;71.82;52.90;;;17.20;52.30;;;;;;5007939;27;93224;-76
2022/03/23 04:35:08;;;;;;;70.93;52.95;;;17.20;52.40;;;;;;4997212;27;91208;-76
2022/03/23 04:37:34;;;;;;;71.90;53.47;;;17.20;52.40;;;;;;5003088;27;89761;-75
2022/03/23 04:40:00;;;;;;;74.82;53.17;;;17.10;52.40;;;;;;4993615;27;90738;-76
2022/03/23 04:42:26;;;;;;;71.43;52.85;;;17.10;52.40;;;;;;5001088;27;91345;-76
2022/03/23 04:44:51;;;;;;;71.38;52.67;;;17.10;52.50;;;;;;5006283;27;91322;-76
2022/03/23 04:47:17;;;;;;;70.78;52.70;;;17.10;52.50;;;;;;4997364;27;91161;-76
2022/03/23 04:49:43;;;;;;;70.05;52.53;;;17.10;52.50;;;;;;5016143;27;89658;-76
2022/03/23 04:52:08;;;;;;;70.60;52.65;;;17.10;52.50;;;;;;5024005;27;91432;-76
2022/03/23 04:54:34;;;;;;;71.72;52.78;;;17.00;52.50;;;;;;5019421;27;94791;-76
2022/03/23 04:56:59;;;;;;;71.68;53.05;;;17.00;52.50;;;;;;5004749;27;92159;-76
2022/03/23 04:59:27;;;;;;;71.10;52.72;;;17.00;52.50;;;;;;5019906;27;89887;-76
2022/03/23 05:01:52;;;;;;;72.63;53.65;;;17.00;52.60;;;;;;4999854;27;92654;-76
2022/03/23 05:04:18;;;;;;;70.93;53.05;;;17.00;52.60;;;;;;5006618;27;90392;-76
2022/03/23 05:06:43;;;;;;;70.55;53.13;;;17.00;52.70;;;;;;5002578;27;89882;-76
2022/03/23 05:09:09;;;;;;;75.28;53.25;;;17.00;52.70;;;;;;5002583;27;89836;-76
2022/03/23 05:11:35;;;;;;;70.57;52.92;;;17.10;52.70;;;;;;4994089;27;92045;-76
2022/03/23 05:14:00;;;;;;;72.07;52.53;;;17.10;52.80;;;;;;5003952;27;90907;-76
2022/03/23 05:16:26;;;;;;;76.93;53.83;;;17.10;52.80;;;;;;5001323;27;93190;-75
2022/03/23 05:18:51;;;;;;;73.47;53.22;;;17.10;52.90;;;;;;5005381;27;89869;-77
2022/03/23 05:21:17;;;;;;;71.60;53.00;;;17.20;53.10;;;;;;4997599;27;91938;-77
2022/03/23 05:23:44;;;;;;;72.80;53.10;;;17.30;53.10;;;;;;5013924;27;90479;-77
2022/03/23 05:26:09;;;;;;;72.93;52.50;;;17.30;52.90;;;;;;5005175;27;89425;-77
2022/03/23 05:28:35;;;;;;;72.07;52.75;;;17.40;52.60;;;;;;5001799;27;90316;-77
2022/03/23 05:31:01;;;;;;;72.90;53.22;;;17.40;52.60;;;;;;4992391;27;90058;-77
2022/03/23 05:33:26;;;;;;;71.65;52.63;;;17.50;52.50;;;;;;5003884;27;91075;-77
2022/03/23 05:35:52;;;;;;;71.65;53.13;;;17.60;52.50;;;;;;5021904;27;89402;-77
2022/03/23 05:38:17;;;;;;;72.30;52.78;;;17.60;52.40;;;;;;5014815;27;88596;-77
2022/03/23 05:40:43;;;;;;;72.30;53.38;;;17.70;52.30;;;;;;4993772;27;92228;-76
2022/03/23 05:43:09;;;;;;;71.53;52.70;;;17.70;52.30;;;;;;4996077;27;92508;-76
2022/03/23 05:45:35;;;;;;;74.22;53.28;;;17.80;52.10;;;;;;5001881;27;92324;-76
2022/03/23 05:48:01;;;;;;;72.05;53.30;;;17.80;52.10;;;;;;4995159;27;90200;-76
2022/03/23 05:50:27;;;;;;;73.40;53.25;;;17.90;52.10;;;;;;4998736;27;90997;-76
2022/03/23 05:52:52;;;;;;;72.95;52.85;;;17.90;51.90;;;;;;4987947;27;91592;-76
2022/03/23 05:55:18;;;;;;;71.13;52.90;;;18.00;51.80;;;;;;5004204;27;91954;-77
2022/03/23 05:57:44;;;;;;;71.53;53.00;;;18.00;51.70;;;;;;5004637;27;89857;-76
2022/03/23 06:00:10;;;;;;;73.80;53.50;;;18.10;51.60;;;;;;4988784;27;92713;-76
2022/03/23 06:02:36;;;;;;;71.47;53.03;;;18.10;52.20;;;;;;4995958;27;90814;-76
2022/03/23 06:05:02;;;;;;;72.30;52.85;;;18.10;51.40;;;;;;4997030;27;89711;-78
2022/03/23 06:07:27;;;;;;;71.65;52.83;;;18.20;51.30;;;;;;5005368;27;93712;-78
2022/03/23 06:09:53;;;;;;;71.85;52.67;;;18.20;51.30;;;;;;4992939;27;93013;-78
2022/03/23 06:12:20;;;;;;;73.47;53.55;;;18.20;51.20;;;;;;5001092;27;91354;-78
2022/03/23 06:14:47;;;;;;;74.95;52.88;;;18.20;51.30;;;;;;5006417;27;90537;-78
2022/03/23 06:17:13;;;;;;;75.28;53.30;;;18.30;51.40;;;;;;5006317;27;90039;-78
2022/03/23 06:19:40;;;;;;;74.53;52.85;;;18.30;51.50;;;;;;5002847;27;90336;-78
2022/03/23 06:22:06;;;;;;;73.47;52.90;;;18.30;51.60;;;;;;5008372;27;91491;-78
2022/03/23 06:24:32;;;;;;;77.15;53.42;;;18.30;51.50;;;;;;5008657;27;91193;-78
2022/03/23 06:26:57;;;;;;;73.38;53.15;;;18.30;51.40;;;;;;4999789;27;91912;-77
2022/03/23 06:29:23;;;;;;;75.32;53.33;;;18.40;51.40;;;;;;5000674;27;93411;-77
2022/03/23 06:31:48;;;;;;;74.65;54.28;;;18.40;51.20;;;;;;5000476;27;92532;-77
2022/03/23 06:34:14;;;;;;;73.70;53.25;;;18.50;51.40;;;;;;4994487;27;90958;-77
2022/03/23 06:36:41;;;;;;;74.15;53.75;;;18.50;51.30;;;;;;5003570;27;89703;-77
2022/03/23 06:39:06;;;;;;;80.88;54.35;;;18.50;51.40;;;;;;4999603;27;91746;-79
2022/03/23 06:41:32;;;;;;;79.35;54.28;;;18.60;52.70;;;;;;4999225;27;91428;-78
2022/03/23 06:43:58;;;;;;;82.82;54.92;;;18.60;52.90;;;;;;4998032;27;89793;-79
2022/03/23 06:46:24;;;;;;;83.07;54.97;;;18.70;52.90;;;;;;5026250;27;89457;-78
2022/03/23 06:48:50;;;;;;;82.05;55.63;;;18.70;52.80;;;;;;5024158;27;97673;-79
2022/03/23 06:51:16;;;;;;;84.78;55.13;;;18.80;52.90;;;;;;5018874;27;90493;-78
2022/03/23 06:53:42;;;;;;;79.93;55.03;;;18.80;52.90;;;;;;5012615;27;91154;-79
2022/03/23 06:56:08;;;;;;;78.70;54.65;;;18.90;52.90;;;;;;5006375;27;91072;-78
2022/03/23 06:58:35;;;;;;;80.35;55.05;;;18.90;52.70;;;;;;5011087;27;92997;-79
2022/03/23 07:01:00;;;;;;;81.15;54.47;;;19.00;52.50;;;;;;5010858;27;92697;-79
2022/03/23 07:03:27;;;;;;;82.88;55.38;;;19.00;52.40;;;;;;5010733;27;90367;-78
2022/03/23 07:05:52;;;;;;;80.20;55.42;;;19.10;52.30;;;;;;4992505;27;90925;-78
2022/03/23 07:11:03;;;;;;;82.20;55.67;;;19.10;52.00;;;;;;4990712;27;90079;-79
2022/03/23 07:13:29;;;;;;;81.43;55.88;;;19.20;51.80;;;;;;4988825;27;90902;-80
2022/03/23 07:15:54;;;;;;;82.82;55.65;;;19.20;51.80;;;;;;4992366;27;89747;-79
2022/03/23 07:18:20;;;;;;;78.75;54.72;;;19.20;51.60;;;;;;4988485;27;90708;-77
2022/03/23 07:20:46;;;;;;;82.15;55.50;;;19.30;51.40;;;;;;4990891;27;93714;-79
2022/03/23 07:23:11;;;;;;;82.55;55.55;;;19.30;51.30;;;;;;4983475;27;91520;-77
2022/03/23 07:25:37;;;;;;;82.72;55.70;;;19.40;51.30;;;;;;4991540;27;90533;-77
2022/03/23 07:28:03;;;;;;;80.75;54.92;;;19.40;51.00;;;;;;4984381;27;91007;-77
2022/03/23 07:30:33;;;;;;;85.65;56.30;;;19.40;51.20;;;;;;4979088;27;94207;-77
2022/03/23 07:33:00;;;;;;;82.75;55.60;;;19.40;51.00;;;;;;4990750;27;91197;-77
2022/03/23 07:35:25;;;;;;;85.03;55.40;;;19.40;51.00;;;;;;4988011;27;91397;-77
2022/03/23 07:37:51;;;;;;;80.50;54.97;;;19.40;50.90;;;;;;4986009;27;95057;-77
2022/03/23 07:40:17;;;;;;;82.25;55.55;;;19.40;50.80;;;;;;4988198;27;92873;-77
2022/03/23 07:42:42;;;;;;;83.40;55.35;;;19.40;50.70;;;;;;5001811;27;89721;-77
2022/03/23 07:45:09;;;;;;;83.68;55.47;;;19.50;50.80;;;;;;5005399;27;91029;-77
2022/03/23 07:47:34;;;;;;;82.32;55.97;;;19.50;50.70;;;;;;5005344;27;92691;-77
2022/03/23 07:50:00;;;;;;;85.50;56.38;;;19.50;50.60;;;;;;5000739;27;90842;-77
2022/03/23 07:52:26;;;;;;;80.97;55.85;;;19.50;50.60;;;;;;5002924;27;90917;-76
2022/03/23 07:54:52;;;;;;;77.30;55.28;;;19.50;50.50;;;;;;5006960;27;90311;-77
2022/03/23 07:57:18;;;;;;;85.35;56.42;;;19.50;50.60;;;;;;5002834;27;91087;-76
2022/03/23 07:59:45;;;;;;;82.88;56.25;;;19.60;50.50;;;;;;4993483;27;90531;-76
2022/03/23 08:02:10;;;;;;;90.65;56.22;;;19.50;50.40;;;;;;5022218;27;89248;-77
2022/03/23 08:04:36;;;;;;;83.55;56.13;;;19.50;50.40;;;;;;5028616;28;88389;-77
2022/03/23 08:07:02;;;;;;;83.72;57.00;;;19.60;50.40;;;;;;5018404;27;93128;-77
2022/03/23 08:09:29;;;;;;;82.97;56.47;;;19.50;50.30;;;;;;5005871;27;90713;-77
2022/03/23 08:11:56;;;;;;;82.90;56.33;;;19.60;50.40;;;;;;4980029;27;92076;-77
2022/03/23 08:14:22;;;;;;;82.70;56.47;;;19.60;50.40;;;;;;5007467;27;90304;-77
2022/03/23 08:16:47;;;;;;;84.05;56.97;;;19.50;50.20;;;;;;5006533;27;89912;-77
2022/03/23 08:19:13;;;;;;;83.30;56.67;;;19.60;50.30;;;;;;4997235;27;89962;-77
2022/03/23 08:21:39;;;;;;;81.68;56.35;;;19.50;50.20;;;;;;5004247;27;89600;-77
2022/03/23 08:24:05;;;;;;;83.60;56.95;;;19.50;50.20;;;;;;5009023;27;90020;-77
2022/03/23 08:26:30;;;;;;;86.10;56.50;;;19.50;50.30;;;;;;5007503;27;91006;-77
2022/03/23 08:28:56;;;;;;;81.88;56.22;;;19.50;50.20;;;;;;5000964;27;89392;-77
2022/03/23 08:31:23;;;;;;;83.35;56.42;;;19.50;50.20;;;;;;5001043;27;92351;-77
2022/03/23 08:33:48;;;;;;;82.85;56.78;;;19.50;50.30;;;;;;5009252;27;91333;-77
2022/03/23 08:36:14;;;;;;;87.70;55.95;;;19.50;50.30;;;;;;5010716;27;91377;-77
2022/03/23 08:38:40;;;;;;;82.60;56.13;;;19.50;50.40;;;;;;5014639;27;92413;-77
2022/03/23 08:41:06;;;;;;;85.38;56.85;;;19.50;50.40;;;;;;5005531;27;90455;-77
2022/03/23 08:43:32;;;;;;;81.50;55.95;;;19.50;50.40;;;;;;5002273;27;90212;-77
2022/03/23 08:45:59;;;;;;;82.85;57.05;;;19.50;50.40;;;;;;5009527;27;91185;-77
2022/03/23 08:48:25;;;;;;;82.93;56.50;;;19.50;50.50;;;;;;5007587;27;91270;-77
2022/03/23 08:50:51;;;;;;;83.75;56.85;;;19.40;50.50;;;;;;5007028;27;92602;-77
2022/03/23 08:53:17;;;;;;;82.55;56.30;;;19.40;50.50;;;;;;5015665;27;90798;-77
2022/03/23 08:55:43;;;;;;;82.00;56.20;;;19.40;50.50;;;;;;5005411;27;90803;-77
2022/03/23 08:58:09;;;;;;;81.32;56.72;;;19.40;50.50;;;;;;4999227;27;92969;-77
2022/03/23 09:00:35;;;;;;;82.32;57.15;;;19.50;50.50;;;;;;5007778;27;91013;-77
2022/03/23 09:03:01;;;;;;;82.00;56.55;;;19.40;50.50;;;;;;5007110;27;89972;-77
2022/03/23 09:05:26;;;;;;;81.30;56.55;;;19.50;50.60;;;;;;5009581;27;92694;-77
2022/03/23 09:07:52;;;;;;;81.10;56.53;;;19.40;50.50;;;;;;5012283;27;91883;-77
2022/03/23 09:10:19;;;;;;;83.30;56.22;;;19.50;50.60;;;;;;5015372;27;91087;-77
2022/03/23 09:12:46;;;;;;;80.93;56.45;;;19.50;50.60;;;;;;4996505;27;89995;-77
2022/03/23 09:15:13;;;;;;;79.85;56.25;;;19.50;50.60;;;;;;5006117;27;92208;-77
2022/03/23 09:17:39;;;;;;;80.28;56.65;;;19.50;50.60;;;;;;5004689;27;92400;-77
2022/03/23 09:20:06;;;;;;;79.35;56.17;;;19.40;50.60;;;;;;5006571;27;90214;-77
2022/03/23 09:22:35;;;;;;;81.95;55.85;;;19.40;50.60;;;;;;5007849;27;92400;-77
2022/03/23 09:25:06;;;;;;;81.30;56.58;;;19.50;50.60;;;;;;5007168;27;91677;-77
2022/03/23 09:27:37;;;;;;;79.65;56.63;;;19.40;50.60;;;;;;4997349;27;91833;-77
2022/03/23 09:30:05;;;;;;;80.43;55.85;;;19.40;50.60;;;;;;5003798;27;90223;-77
2022/03/23 09:32:31;;;;;;;80.65;56.50;;;19.50;50.60;;;;;;5008847;27;91120;-77
2022/03/23 09:34:57;;;;;;;81.32;56.75;;;19.50;50.70;;;;;;5006862;27;90565;-77
2022/03/23 09:40:07;;;;;;;80.47;56.08;;;19.50;50.60;;;;;;5000589;27;94679;-77
2022/03/23 09:42:35;;;;;;;80.65;56.45;;;19.50;50.60;;;;;;5006384;27;89345;-77
2022/03/23 09:45:01;;;;;;;82.28;56.55;;;19.50;50.60;;;;;;5005464;27;92340;-77
2022/03/23 09:47:27;;;;;;;79.97;56.00;;;19.50;50.60;;;;;;5007678;27;90827;-77
2022/03/23 09:49:52;;;;;;;80.00;55.38;;;19.50;50.60;;;;;;5010676;27;91041;-77
2022/03/23 09:52:18;;;;;;;79.65;56.35;;;19.50;50.60;;;;;;5003777;27;91742;-77
2022/03/23 09:54:45;;;;;;;81.57;56.75;;;19.50;50.60;;;;;;5009071;27;90298;-77
2022/03/23 09:57:13;;;;;;;78.75;55.80;;;19.50;50.60;;;;;;5001982;27;90977;-77
2022/03/23 09:59:39;;;;;;;81.40;56.63;;;19.50;50.60;;;;;;5010027;27;90493;-77
2022/03/23 10:02:05;;;;;;;82.05;56.38;;;19.50;50.60;;;;;;5009421;27;89585;-77
2022/03/23 10:04:51;;;;;;;81.70;56.42;;;19.50;50.60;;;;;;5009308;27;90199;-77
2022/03/23 10:07:45;;;;;;;79.78;56.03;;;19.50;50.60;;;;;;5012849;27;90709;-77
2022/03/23 10:10:19;;;;;;;80.90;56.20;;;19.50;50.60;;;;;;5012682;27;91567;-77
2022/03/23 10:12:50;;;;;;;81.75;56.00;;;19.50;50.60;;;;;;4999350;27;89500;-77
2022/03/23 10:15:53;;;;;;;80.07;56.13;;;19.60;50.60;;;;;;5015076;27;91649;-77
2022/03/23 10:18:24;;;;;;;79.50;56.17;;;19.50;50.50;;;;;;5008537;27;93574;-77
2022/03/23 10:20:51;;;;;;;78.90;55.63;;;19.60;50.50;;;;;;5004751;27;89869;-77
2022/03/23 10:23:20;;;;;;;79.07;55.53;;;19.50;50.50;;;;;;5014950;27;90723;-77
2022/03/23 10:25:46;;;;;;;81.63;55.70;;;19.60;50.50;;;;;;5013227;27;90675;-77
2022/03/23 10:28:13;;;;;;;79.20;56.15;;;19.60;50.50;;;;;;5006235;27;93340;-77
2022/03/23 10:30:41;;;;;;;80.78;55.72;;;19.60;50.50;;;;;;5010855;27;89583;-77
2022/03/23 10:33:22;;;;;;;79.95;55.70;;;19.60;50.40;;;;;;5009452;27;90095;-77
2022/03/23 10:35:48;;;;;;;79.83;55.60;;;19.60;50.50;;;;;;5009329;27;92429;-77
2022/03/23 10:38:23;;;;;;;78.78;55.70;;;19.60;50.40;;;;;;5004603;27;90366;-77
2022/03/23 10:40:52;;;;;;;78.78;55.28;;;19.60;50.40;;;;;;5007926;27;90569;-77
2022/03/23 10:43:34;;;;;;;79.60;54.95;;;19.60;50.40;;;;;;5000876;27;92391;-77
2022/03/23 10:46:09;;;;;;;79.05;55.13;;;19.60;50.40;;;;;;5006460;27;90739;-77
2022/03/23 10:48:35;;;;;;;78.93;55.25;;;19.60;50.40;;;;;;5012557;27;89987;-77
2022/03/23 10:51:01;;;;;;;76.82;54.80;;;19.60;50.40;;;;;;5011143;27;90285;-77
2022/03/23 10:53:41;;;;;;;80.35;55.17;;;19.60;50.40;;;;;;5010825;27;89853;-77
2022/03/23 10:56:08;;;;;;;79.43;54.92;;;19.70;50.40;;;;;;5007091;27;94453;-78
2022/03/23 10:58:35;;;;;;;78.97;55.50;;;19.60;50.30;;;;;;5003973;27;90731;-77
2022/03/23 11:01:07;;;;;;;78.72;55.08;;;19.60;50.30;;;;;;5008720;27;90865;-77
2022/03/23 11:03:42;;;;;;;78.40;55.25;;;19.60;50.30;;;;;;5010134;27;95674;-77
2022/03/23 11:06:12;;;;;;;78.30;54.97;;;19.60;50.30;;;;;;5000346;27;93206;-77
2022/03/23 11:08:38;;;;;;;79.40;55.37;;;19.60;50.30;;;;;;5008995;27;92181;-77
2022/03/23 11:16:38;;;;;;;78.57;55.30;;;19.70;50.30;;;;;;5005797;27;90334;-77
2022/03/23 11:19:10;;;;;;;79.63;55.63;;;19.70;50.30;;;;;;5010262;27;90549;-77
2022/03/23 11:21:54;;;;;;;;;;;19.70;50.30;;;;;;5011315;27;95455;-77
2022/03/23 11:24:19;;;;;;;79.97;55.63;;;19.60;50.20;;;;;;5016375;27;88999;-76
2022/03/23 11:26:45;;;;;;;78.25;54.95;;;19.70;50.30;;;;;;5012886;27;91107;-77
2022/03/23 11:29:12;;;;;;;77.97;54.60;;;19.70;50.30;;;;;;4995738;27;92010;-77
2022/03/23 11:31:38;;;;;;;78.18;55.08;;;19.70;50.30;;;;;;4989872;27;95845;-77
2022/03/23 11:34:04;;;;;;;77.20;54.47;;;19.70;50.30;;;;;;5000308;27;90367;-77
2022/03/23 11:36:32;;;;;;;79.57;55.22;;;19.70;50.20;;;;;;5001451;27;93105;-77
2022/03/23 11:39:00;;;;;;;77.95;54.80;;;19.70;50.20;;;;;;5006013;27;90203;-77
2022/03/23 11:41:26;;;;;;;79.72;55.08;;;19.70;50.20;;;;;;5008189;27;90069;-77
2022/03/23 11:43:52;;;;;;;79.38;55.03;;;19.70;50.20;;;;;;4983519;28;90973;-77
2022/03/23 11:46:25;;;;;;;79.88;54.92;;;19.70;50.30;;;;;;5032300;27;92861;-76
2022/03/23 11:49:12;;;;;;;77.40;54.53;;;19.70;50.20;;;;;;5030804;27;89421;-76
2022/03/23 11:52:17;;;;;;;79.45;54.97;;;19.80;50.30;;;;;;5025726;27;89715;-77
2022/03/23 11:57:54;;;;;;;78.60;54.78;;;19.70;50.20;;;;;;5001382;27;90716;-77
2022/03/23 12:00:21;;;;;;;77.90;54.57;;;19.70;50.20;;;;;;5000808;27;91757;-77
2022/03/23 12:02:47;;;;;;;77.72;54.65;;;19.80;50.20;;;;;;5012958;27;91185;-76
2022/03/23 12:05:24;;;;;;;79.03;54.95;;;19.80;50.40;;;;;;5023957;27;95372;-76
2022/03/23 12:07:50;;;;;;;79.80;55.05;;;19.80;50.40;;;;;;5026494;27;89815;-77
2022/03/23 12:10:23;;;;;;;85.38;55.13;;;19.80;50.60;;;;;;5002198;27;91413;-76
2022/03/23 12:12:49;;;;;;;81.95;55.88;;;19.80;50.40;;;;;;5016940;28;89255;-76
2022/03/23 12:15:23;;;;;;;85.07;55.58;;;19.90;50.40;;;;;;5017097;27;88795;-76
2022/03/23 12:17:58;;;;;;;87.53;55.85;;;19.90;50.70;;;;;;5021594;27;90729;-78
2022/03/23 12:20:41;;;;;;;82.05;55.63;;;19.90;50.90;;;;;;5025526;27;93628;-76
2022/03/23 12:23:38;;;;;;;83.10;55.75;;;19.90;50.70;;;;;;5022532;27;90159;-76
2022/03/23 12:26:27;;;;;;;91.95;56.80;;;20.00;50.60;;;;;;5031077;27;89413;-77
2022/03/23 12:29:00;;;;;;;88.95;56.60;;;20.00;50.90;;;;;;5007668;27;90154;-75
2022/03/23 12:31:36;;;;;;;90.15;56.67;;;20.00;50.70;;;;;;4987556;27;91686;-77
2022/03/23 12:34:26;;;;;;;86.50;56.90;;;20.00;50.70;;;;;;4990613;27;91556;-77
2022/03/23 12:36:56;;;;;;;112.50;57.38;;;20.00;50.60;;;;;;5007421;27;90540;-77
2022/03/23 12:39:32;;;;;;;95.80;56.65;;;20.00;50.60;;;;;;5029311;27;89459;-76
2022/03/23 12:42:00;;;;;;;90.10;56.95;;;20.00;50.50;;;;;;5021713;27;90855;-79
2022/03/23 12:44:33;;;;;;;92.45;56.83;;;20.10;50.70;;;;;;5018622;27;90782;-80
2022/03/23 12:47:07;;;;;;;90.72;57.17;;;20.10;51.00;;;;;;4987822;27;89891;-78
2022/03/23 12:58:10;;;;;;;89.93;56.88;;;20.30;51.80;;;;;;4987917;27;89915;-76
2022/03/23 13:00:41;;;;;;;90.18;56.92;;;20.30;51.30;;;;;;5024644;27;91243;-77
2022/03/23 13:03:06;;;;;;;91.80;56.80;;;20.30;51.10;;;;;;5022813;27;90192;-76